Time;durP1;ratioP1;P1;durP2;ratioP2;P2;SDS_P1;SDS_P2;PMS_P1;PMS_P2;Temp;Humidity;BMP_temperature;BMP_pressure;BME280_temperature;BME280_humidity;BME280_pressure;Samples;Min_cycle;Max_cycle;Signal;HPM_P1;HPM_P2
2023/02/11 00:02:50;;;;;;;;;;;18.80;30.50;;;;;;8365311;28;19936;-41
2023/02/11 00:06:51;;;;;;;;;;;18.80;30.50;;;;;;8365005;28;20516;-41
2023/02/11 00:10:52;;;;;;;;;;;18.70;30.50;;;;;;8364980;28;19963;-41
2023/02/11 00:14:53;;;;;;;;;;;18.70;30.50;;;;;;8365036;28;19917;-41
2023/02/11 00:18:54;;;;;;;;;;;18.70;30.60;;;;;;8364365;28;19939;-41
2023/02/11 00:22:54;;;;;;;;;;;18.60;30.60;;;;;;8364452;28;19925;-41
2023/02/11 00:26:54;;;;;;;;;;;18.70;30.60;;;;;;8364815;28;20354;-41
2023/02/11 00:31:00;;;;;;;;;;;18.60;30.60;;;;;;8363690;28;20024;-41
2023/02/11 00:35:00;;;;;;;;;;;18.60;30.60;;;;;;8364462;28;19982;-41
2023/02/11 00:39:01;;;;;;;;;;;18.60;30.70;;;;;;8364627;28;19970;-41
2023/02/11 00:43:01;;;;;;;;;;;18.50;30.60;;;;;;8364331;28;19925;-41
2023/02/11 00:47:02;;;;;;;;;;;18.50;30.60;;;;;;8364220;28;19913;-41
2023/02/11 00:51:05;;;;;;;;;;;18.50;30.60;;;;;;8363556;28;19923;-40
2023/02/11 00:55:06;;;;;;;;;;;18.50;30.60;;;;;;8364087;28;19924;-41
2023/02/11 00:59:07;;;;;;;;;;;18.40;30.60;;;;;;8363410;28;19921;-41
2023/02/11 01:03:07;;;;;;;;;;;18.40;30.60;;;;;;8363034;28;20282;-40
2023/02/11 01:07:08;;;;;;;;;;;18.40;30.70;;;;;;8363535;28;19919;-41
2023/02/11 01:11:13;;;;;;;;;;;18.40;30.70;;;;;;8362726;28;19986;-41
2023/02/11 01:15:15;;;;;;;;;;;18.40;30.60;;;;;;8362902;28;20293;-41
2023/02/11 01:19:15;;;;;;;;;;;18.40;30.70;;;;;;8363253;28;19917;-41
2023/02/11 01:23:16;;;;;;;;;;;18.30;30.70;;;;;;8362976;28;19948;-41
2023/02/11 01:27:16;;;;;;;;;;;18.30;30.70;;;;;;8362147;28;19921;-41
2023/02/11 01:31:16;;;;;;;;;;;18.30;30.70;;;;;;8363383;28;19923;-41
2023/02/11 01:35:17;;;;;;;;;;;18.30;30.70;;;;;;8362955;28;19928;-41
2023/02/11 01:39:17;;;;;;;;;;;18.20;30.70;;;;;;8362475;28;20004;-41
2023/02/11 01:43:18;;;;;;;;;;;18.20;30.70;;;;;;8367761;28;20439;-42
2023/02/11 01:47:19;;;;;;;;;;;18.20;30.70;;;;;;8370018;28;19912;-41
2023/02/11 01:51:20;;;;;;;;;;;18.20;30.70;;;;;;8369138;28;19917;-41
2023/02/11 01:59:46;;;;;;;;;;;18.10;30.80;;;;;;8372520;28;20388;-40
2023/02/11 02:03:47;;;;;;;;;;;18.10;30.80;;;;;;8368581;28;20340;-41
2023/02/11 02:07:53;;;;;;;;;;;18.10;30.80;;;;;;8369295;28;19913;-41
2023/02/11 02:11:53;;;;;;;;;;;18.00;31.30;;;;;;8367903;28;19971;-41
2023/02/11 02:15:55;;;;;;;;;;;18.10;30.80;;;;;;8368446;28;19921;-41
2023/02/11 02:20:09;;;;;;;;;;;18.00;30.80;;;;;;8368718;28;20441;-40
2023/02/11 02:24:13;;;;;;;;;;;18.00;30.80;;;;;;8370429;28;19929;-40
2023/02/11 02:28:32;;;;;;;;;;;18.00;30.80;;;;;;8368631;28;19956;-40
2023/02/11 02:32:55;;;;;;;;;;;18.00;30.80;;;;;;8368456;28;19921;-40
2023/02/11 02:36:55;;;;;;;;;;;17.90;30.70;;;;;;8367653;28;19947;-40
2023/02/11 02:41:00;;;;;;;;;;;17.90;30.80;;;;;;8368200;28;19948;-40
2023/02/11 02:45:00;;;;;;;;;;;17.90;30.80;;;;;;8367871;28;19970;-40
2023/02/11 02:49:01;;;;;;;;;;;17.90;30.80;;;;;;8367347;28;20015;-40
2023/02/11 02:53:01;;;;;;;;;;;17.90;30.80;;;;;;8368037;28;19913;-40
2023/02/11 02:57:14;;;;;;;;;;;17.80;30.80;;;;;;8366902;28;19955;-40
2023/02/11 03:01:22;;;;;;;;;;;17.80;30.80;;;;;;8367873;28;19925;-40
2023/02/11 03:05:38;;;;;;;;;;;17.80;30.80;;;;;;8367251;28;19913;-40
2023/02/11 03:09:41;;;;;;;;;;;17.80;30.80;;;;;;8366491;28;20289;-40
2023/02/11 03:13:42;;;;;;;;;;;17.80;30.80;;;;;;8367386;28;19916;-40
2023/02/11 03:17:45;;;;;;;;;;;17.70;30.80;;;;;;8367122;28;20388;-40
2023/02/11 03:21:47;;;;;;;;;;;17.70;30.80;;;;;;8366301;28;19979;-40
2023/02/11 03:25:50;;;;;;;;;;;17.70;30.80;;;;;;8366710;28;20366;-40
2023/02/11 03:29:56;;;;;;;;;;;17.70;30.80;;;;;;8366375;28;20273;-40
2023/02/11 03:34:05;;;;;;;;;;;17.70;30.70;;;;;;8365957;28;19971;-40
2023/02/11 03:38:08;;;;;;;;;;;17.70;30.70;;;;;;8366723;28;20008;-40
2023/02/11 03:42:09;;;;;;;;;;;17.70;30.60;;;;;;8365648;28;20389;-40
2023/02/11 03:46:11;;;;;;;;;;;17.70;30.60;;;;;;8365824;28;20442;-40
2023/02/11 03:50:13;;;;;;;;;;;17.80;30.60;;;;;;8365800;28;19917;-40
2023/02/11 03:54:15;;;;;;;;;;;17.80;30.60;;;;;;8365196;28;19971;-40
2023/02/11 03:58:15;;;;;;;;;;;17.70;30.60;;;;;;8365909;28;19920;-40
2023/02/11 04:02:16;;;;;;;;;;;17.80;30.70;;;;;;8347492;28;19967;-41
2023/02/11 04:06:17;;;;;;;;;;;17.70;30.60;;;;;;8364319;28;19978;-40
2023/02/11 04:10:17;;;;;;;;;;;17.70;30.50;;;;;;8365210;28;19920;-40
2023/02/11 04:14:17;;;;;;;;;;;17.70;30.50;;;;;;8365055;28;20397;-41
2023/02/11 04:18:18;;;;;;;;;;;17.70;30.50;;;;;;8364722;28;19913;-40
2023/02/11 04:22:18;;;;;;;;;;;17.80;30.50;;;;;;8364977;28;19932;-40
2023/02/11 04:26:19;;;;;;;;;;;17.80;30.50;;;;;;8364995;28;20022;-40
2023/02/11 04:30:19;;;;;;;;;;;17.80;30.50;;;;;;8364074;28;19916;-40
2023/02/11 04:34:20;;;;;;;;;;;17.80;30.50;;;;;;8364456;28;19913;-40
2023/02/11 04:38:22;;;;;;;;;;;17.80;30.40;;;;;;8364832;28;20015;-40
2023/02/11 04:42:23;;;;;;;;;;;17.80;30.50;;;;;;8363703;28;19987;-40
2023/02/11 04:46:24;;;;;;;;;;;17.70;30.40;;;;;;8364596;28;19924;-40
2023/02/11 04:50:24;;;;;;;;;;;17.70;30.50;;;;;;8363820;28;19923;-40
2023/02/11 04:54:24;;;;;;;;;;;17.70;30.50;;;;;;8366112;28;19913;-40
2023/02/11 04:58:25;;;;;;;;;;;17.70;30.50;;;;;;8367984;28;20015;-40
2023/02/11 05:02:25;;;;;;;;;;;17.70;30.50;;;;;;8368811;28;19925;-40
2023/02/11 05:06:26;;;;;;;;;;;17.60;30.50;;;;;;8361719;28;19917;-40
2023/02/11 05:10:27;;;;;;;;;;;17.60;30.60;;;;;;8364654;28;19917;-39
2023/02/11 05:14:27;;;;;;;;;;;17.70;30.60;;;;;;8363477;28;19920;-40
2023/02/11 05:18:28;;;;;;;;;;;17.80;30.50;;;;;;8362214;28;20309;-40
2023/02/11 05:22:29;;;;;;;;;;;17.90;30.40;;;;;;8363312;28;19932;-41
2023/02/11 05:26:29;;;;;;;;;;;18.10;30.30;;;;;;8363382;28;19939;-41
2023/02/11 05:30:30;;;;;;;;;;;18.20;30.10;;;;;;8362685;28;19917;-41
2023/02/11 05:34:30;;;;;;;;;;;18.30;30.10;;;;;;8363175;28;19913;-41
2023/02/11 05:38:31;;;;;;;;;;;18.40;30.00;;;;;;8362837;28;20007;-41
2023/02/11 05:42:31;;;;;;;;;;;18.50;30.00;;;;;;8362717;28;19932;-41
2023/02/11 05:46:31;;;;;;;;;;;18.50;30.00;;;;;;8362784;28;19920;-41
2023/02/11 05:50:32;;;;;;;;;;;18.60;30.00;;;;;;8362735;28;20321;-41
2023/02/11 05:54:32;;;;;;;;;;;18.70;30.00;;;;;;8362447;28;19913;-41
2023/02/11 05:58:33;;;;;;;;;;;18.70;29.90;;;;;;8362940;28;19928;-41
2023/02/11 06:02:33;;;;;;;;;;;18.80;30.00;;;;;;8362425;28;19956;-40
2023/02/11 06:06:34;;;;;;;;;;;18.80;29.90;;;;;;8362135;28;20042;-40
2023/02/11 06:10:34;;;;;;;;;;;18.90;29.80;;;;;;8362594;28;20378;-41
2023/02/11 06:14:35;;;;;;;;;;;18.90;29.90;;;;;;8362575;28;19920;-41
2023/02/11 06:18:35;;;;;;;;;;;19.00;29.90;;;;;;8361732;28;19970;-40
2023/02/11 06:22:36;;;;;;;;;;;19.00;29.80;;;;;;8362367;28;20016;-40
2023/02/11 06:26:36;;;;;;;;;;;19.00;29.90;;;;;;8362630;28;19917;-40
2023/02/11 06:30:37;;;;;;;;;;;19.00;29.80;;;;;;8367806;28;19917;-40
2023/02/11 06:34:37;;;;;;;;;;;19.10;29.80;;;;;;8368489;28;19920;-41
2023/02/11 06:38:38;;;;;;;;;;;19.10;29.70;;;;;;8367987;28;19923;-41
2023/02/11 06:42:38;;;;;;;;;;;19.10;29.80;;;;;;8367455;28;20293;-41
2023/02/11 06:46:39;;;;;;;;;;;19.10;29.80;;;;;;8368126;28;19924;-41
2023/02/11 06:50:39;;;;;;;;;;;19.20;29.70;;;;;;8367962;28;19917;-41
2023/02/11 06:54:39;;;;;;;;;;;19.20;29.80;;;;;;8367446;28;19919;-41
2023/02/11 06:58:40;;;;;;;;;;;19.20;29.70;;;;;;8367187;28;19920;-41
2023/02/11 07:02:41;;;;;;;;;;;19.30;29.70;;;;;;8367233;28;19925;-41
2023/02/11 07:06:41;;;;;;;;;;;19.30;29.70;;;;;;8366838;28;19997;-41
2023/02/11 07:10:41;;;;;;;;;;;19.30;29.80;;;;;;8367093;28;19917;-41
2023/02/11 07:14:42;;;;;;;;;;;19.30;29.70;;;;;;8367344;28;20016;-41
2023/02/11 07:18:43;;;;;;;;;;;19.40;30.00;;;;;;8366417;28;20491;-41
2023/02/11 07:22:43;;;;;;;;;;;19.40;29.70;;;;;;8366956;28;19924;-41
2023/02/11 07:26:44;;;;;;;;;;;19.40;29.70;;;;;;8367224;28;19928;-41
2023/02/11 07:30:44;;;;;;;;;;;19.40;29.60;;;;;;8366091;28;20487;-41
2023/02/11 07:34:46;;;;;;;;;;;19.50;29.60;;;;;;8366954;28;20266;-41
2023/02/11 07:38:47;;;;;;;;;;;19.50;29.70;;;;;;8365495;28;20275;-41
2023/02/11 07:42:47;;;;;;;;;;;19.50;29.50;;;;;;8365642;28;20016;-41
2023/02/11 07:46:48;;;;;;;;;;;19.50;29.50;;;;;;8366139;28;20373;-41
2023/02/11 07:50:49;;;;;;;;;;;19.50;29.50;;;;;;8365878;28;19970;-43
2023/02/11 07:54:49;;;;;;;;;;;19.60;29.50;;;;;;8365580;28;19917;-41
2023/02/11 07:58:50;;;;;;;;;;;19.60;29.50;;;;;;8365705;28;20283;-42
2023/02/11 08:02:50;;;;;;;;;;;19.70;29.50;;;;;;8365501;28;19925;-42
2023/02/11 08:06:53;;;;;;;;;;;19.60;29.50;;;;;;8364947;28;20300;-42
2023/02/11 08:10:53;;;;;;;;;;;19.70;29.50;;;;;;8349470;28;20401;-42
2023/02/11 08:14:55;;;;;;;;;;;19.70;29.50;;;;;;8365370;28;19913;-42
2023/02/11 08:18:56;;;;;;;;;;;19.70;29.60;;;;;;8364382;28;19917;-42
2023/02/11 08:22:58;;;;;;;;;;;19.70;29.50;;;;;;8364749;28;20016;-42
2023/02/11 08:26:58;;;;;;;;;;;19.70;29.50;;;;;;8364612;28;19917;-42
2023/02/11 08:31:03;;;;;;;;;;;19.70;29.50;;;;;;8364102;28;20400;-42
2023/02/11 08:35:06;;;;;;;;;;;19.70;29.50;;;;;;8364658;28;19967;-42
2023/02/11 08:39:10;;;;;;;;;;;19.80;29.50;;;;;;8363943;28;20282;-42
2023/02/11 08:43:10;;;;;;;;;;;19.70;29.40;;;;;;8363913;28;19936;-42
2023/02/11 08:47:11;;;;;;;;;;;19.80;29.50;;;;;;8364057;28;19920;-42
2023/02/11 08:51:13;;;;;;;;;;;19.70;29.40;;;;;;8363423;28;19925;-42
2023/02/11 08:55:13;;;;;;;;;;;19.80;29.50;;;;;;8364393;28;19919;-43
2023/02/11 08:59:15;;;;;;;;;;;19.80;29.50;;;;;;8363780;28;19920;-42
2023/02/11 09:03:16;;;;;;;;;;;19.80;29.50;;;;;;8363675;28;20002;-42
2023/02/11 09:07:17;;;;;;;;;;;19.80;29.50;;;;;;8363941;28;19917;-42
2023/02/11 09:11:19;;;;;;;;;;;19.80;29.50;;;;;;8363707;28;19917;-41
2023/02/11 09:15:19;;;;;;;;;;;19.90;29.50;;;;;;8363343;28;19913;-42
2023/02/11 09:19:20;;;;;;;;;;;19.90;29.50;;;;;;8363557;28;19971;-42
2023/02/11 09:23:20;;;;;;;;;;;19.90;29.50;;;;;;8363145;28;20028;-42
2023/02/11 09:27:21;;;;;;;;;;;19.90;29.50;;;;;;8362781;28;19990;-43
2023/02/11 09:31:22;;;;;;;;;;;19.90;29.50;;;;;;8363035;28;19944;-42
2023/02/11 09:35:22;;;;;;;;;;;19.90;29.40;;;;;;8363320;28;19940;-43
2023/02/11 09:39:25;;;;;;;;;;;20.00;29.50;;;;;;8362530;28;20361;-42
2023/02/11 09:43:29;;;;;;;;;;;20.00;29.50;;;;;;8363060;28;19929;-42
2023/02/11 09:47:31;;;;;;;;;;;20.00;29.50;;;;;;8362749;28;20246;-42
2023/02/11 09:51:38;;;;;;;;;;;20.00;29.50;;;;;;8362369;28;19916;-43
2023/02/11 09:55:41;;;;;;;;;;;20.00;29.50;;;;;;8363010;28;20397;-43
2023/02/11 09:59:42;;;;;;;;;;;20.00;29.50;;;;;;8362600;28;19931;-43
2023/02/11 10:03:52;;;;;;;;;;;20.10;29.40;;;;;;8365792;28;20267;-43
2023/02/11 10:07:59;;;;;;;;;;;20.10;29.40;;;;;;8369507;28;19923;-43
2023/02/11 10:12:18;;;;;;;;;;;20.10;29.40;;;;;;8369038;28;19964;-43
2023/02/11 10:16:23;;;;;;;;;;;20.10;29.50;;;;;;8369165;28;19917;-43
2023/02/11 10:20:30;;;;;;;;;;;20.10;29.40;;;;;;8368644;28;20397;-43
2023/02/11 10:24:31;;;;;;;;;;;20.20;29.50;;;;;;8367796;28;19956;-42
2023/02/11 10:28:32;;;;;;;;;;;20.20;29.50;;;;;;8368799;28;19924;-43
2023/02/11 10:32:45;;;;;;;;;;;20.20;29.40;;;;;;8368087;28;20377;-43
2023/02/11 10:36:45;;;;;;;;;;;20.20;29.40;;;;;;8367759;28;19924;-41
2023/02/11 10:40:46;;;;;;;;;;;20.20;29.40;;;;;;8368359;28;19913;-42
2023/02/11 10:44:57;;;;;;;;;;;20.20;29.40;;;;;;8367659;28;19925;-42
2023/02/11 10:48:58;;;;;;;;;;;20.30;29.40;;;;;;8367392;28;20340;-42
2023/02/11 10:53:12;;;;;;;;;;;20.30;29.40;;;;;;8368004;28;19917;-42
2023/02/11 10:57:17;;;;;;;;;;;20.30;29.40;;;;;;8367199;28;20401;-42
2023/02/11 11:01:19;;;;;;;;;;;20.30;29.40;;;;;;8368337;28;20381;-42
2023/02/11 11:05:22;;;;;;;;;;;20.30;29.40;;;;;;8354084;28;19924;-41
2023/02/11 11:09:28;;;;;;;;;;;20.30;29.40;;;;;;8355225;28;19917;-42
2023/02/11 11:13:33;;;;;;;;;;;20.30;29.50;;;;;;8365915;28;19917;-42
2023/02/11 11:17:34;;;;;;;;;;;20.30;29.50;;;;;;8366945;28;19996;-42
2023/02/11 11:21:34;;;;;;;;;;;20.30;29.40;;;;;;8366368;28;19916;-42
2023/02/11 11:25:36;;;;;;;;;;;20.30;29.40;;;;;;8366533;28;19917;-41
2023/02/11 11:29:38;;;;;;;;;;;20.30;29.40;;;;;;8366776;28;19917;-42
2023/02/11 11:33:40;;;;;;;;;;;20.30;29.40;;;;;;8365944;28;20310;-42
2023/02/11 11:37:40;;;;;;;;;;;20.30;29.50;;;;;;8366150;28;19921;-42
2023/02/11 11:41:48;;;;;;;;;;;20.20;29.50;;;;;;8366836;28;19925;-42
2023/02/11 11:45:58;;;;;;;;;;;20.20;29.50;;;;;;8365759;28;19917;-41
2023/02/11 11:50:05;;;;;;;;;;;20.30;29.50;;;;;;8365936;28;19952;-41
2023/02/11 11:54:10;;;;;;;;;;;20.30;29.50;;;;;;8365700;28;20358;-41
2023/02/11 11:58:16;;;;;;;;;;;20.30;29.50;;;;;;8365764;28;19928;-42
2023/02/11 12:02:35;;;;;;;;;;;20.30;29.50;;;;;;8365811;28;19921;-41
2023/02/11 12:06:42;;;;;;;;;;;20.40;29.50;;;;;;8365394;28;19913;-42
2023/02/11 12:11:02;;;;;;;;;;;20.40;29.50;;;;;;8365615;28;19952;-42
2023/02/11 12:15:09;;;;;;;;;;;20.40;29.50;;;;;;8364960;28;19916;-41
2023/02/11 12:19:12;;;;;;;;;;;20.50;29.50;;;;;;8365486;28;19917;-42
2023/02/11 12:23:15;;;;;;;;;;;20.50;29.50;;;;;;8365015;28;20024;-42
2023/02/11 12:27:32;;;;;;;;;;;20.50;29.50;;;;;;8364322;28;19916;-42
2023/02/11 12:31:42;;;;;;;;;;;20.50;29.50;;;;;;8364915;28;20404;-42
2023/02/11 12:35:50;;;;;;;;;;;20.50;29.50;;;;;;8364507;28;19917;-42
2023/02/11 12:39:57;;;;;;;;;;;20.50;29.50;;;;;;8363908;28;19917;-41
2023/02/11 12:43:58;;;;;;;;;;;20.50;29.50;;;;;;8364341;28;19979;-42
2023/02/11 12:48:21;;;;;;;;;;;20.50;29.50;;;;;;8364139;28;19970;-42
2023/02/11 12:52:43;;;;;;;;;;;20.60;29.50;;;;;;8364387;28;19913;-41
2023/02/11 12:57:02;;;;;;;;;;;20.60;29.50;;;;;;8364425;28;19917;-42
2023/02/11 13:01:05;;;;;;;;;;;20.60;29.40;;;;;;8364100;28;19932;-41
2023/02/11 13:05:25;;;;;;;;;;;20.60;29.50;;;;;;8363650;28;19948;-43
2023/02/11 13:09:39;;;;;;;;;;;20.50;29.40;;;;;;8363322;28;19916;-42
2023/02/11 13:13:44;;;;;;;;;;;20.50;29.40;;;;;;8363012;28;22364;-43
2023/02/11 13:17:52;;;;;;;;;;;20.50;29.40;;;;;;8363309;28;19921;-43
2023/02/11 13:21:58;;;;;;;;;;;20.40;29.40;;;;;;8363007;28;20340;-43
2023/02/11 13:26:09;;;;;;;;;;;20.40;29.40;;;;;;8363430;28;20377;-43
2023/02/11 13:30:23;;;;;;;;;;;20.40;29.50;;;;;;8362673;28;19928;-42
2023/02/11 13:34:24;;;;;;;;;;;20.30;29.50;;;;;;8363069;28;19924;-42
2023/02/11 13:38:27;;;;;;;;;;;20.40;29.60;;;;;;8362332;28;19971;-42
2023/02/11 13:42:28;;;;;;;;;;;20.40;29.70;;;;;;8362734;28;19980;-42
2023/02/11 13:46:45;;;;;;;;;;;20.40;29.60;;;;;;8362944;28;19917;-42
2023/02/11 13:50:47;;;;;;;;;;;20.50;29.60;;;;;;8362859;28;20328;-42
2023/02/11 13:54:50;;;;;;;;;;;20.50;29.60;;;;;;8362161;28;19924;-42
2023/02/11 13:58:50;;;;;;;;;;;20.50;29.50;;;;;;8362614;28;19928;-42
2023/02/11 14:12:19;;;;;;;;;;;20.60;29.50;;;;;;8360127;28;19991;-41
2023/02/11 14:16:21;;;;;;;;;;;20.70;29.50;;;;;;8344037;28;19986;-41
2023/02/11 14:20:33;;;;;;;;;;;20.70;29.50;;;;;;8349046;28;19917;-41
2023/02/11 14:24:33;;;;;;;;;;;20.70;29.40;;;;;;8361779;28;20292;-41
2023/02/11 14:28:34;;;;;;;;;;;20.60;29.40;;;;;;8362197;28;19916;-41
2023/02/11 14:32:44;;;;;;;;;;;20.60;29.40;;;;;;8362483;28;20011;-42
2023/02/11 14:36:47;;;;;;;;;;;20.60;29.40;;;;;;8361808;28;20243;-42
2023/02/11 14:40:57;;;;;;;;;;;20.60;29.40;;;;;;8362051;28;19964;-41
2023/02/11 14:45:03;;;;;;;;;;;20.60;29.40;;;;;;8361995;28;19963;-42
2023/02/11 14:49:04;;;;;;;;;;;20.50;29.40;;;;;;8364270;28;20371;-41
2023/02/11 14:53:06;;;;;;;;;;;20.50;29.40;;;;;;8368197;28;20320;-41
2023/02/11 14:57:17;;;;;;;;;;;20.50;29.40;;;;;;8367695;28;19924;-41
2023/02/11 15:01:28;;;;;;;;;;;20.50;29.40;;;;;;8367533;28;19920;-41
2023/02/11 15:05:28;;;;;;;;;;;20.50;29.50;;;;;;8367557;28;19916;-42
2023/02/11 15:09:31;;;;;;;;;;;20.50;29.50;;;;;;8366749;28;20018;-42
2023/02/11 15:13:32;;;;;;;;;;;20.50;29.60;;;;;;8367139;28;19917;-42
2023/02/11 15:17:33;;;;;;;;;;;20.50;29.60;;;;;;8367307;28;20018;-42
2023/02/11 15:21:34;;;;;;;;;;;20.60;29.50;;;;;;8366574;28;20058;-41
2023/02/11 15:25:41;;;;;;;;;;;20.60;29.50;;;;;;8367021;28;20423;-42
2023/02/11 15:29:43;;;;;;;;;;;20.70;29.50;;;;;;8366701;28;19983;-42
2023/02/11 15:33:43;;;;;;;;;;;20.70;29.50;;;;;;8366014;28;19924;-43
2023/02/11 15:37:44;;;;;;;;;;;20.70;29.50;;;;;;8366681;28;19921;-43
2023/02/11 15:41:44;;;;;;;;;;;20.70;29.40;;;;;;8366512;28;19925;-42
2023/02/11 15:45:51;;;;;;;;;;;20.70;29.40;;;;;;8365794;28;19925;-42
2023/02/11 15:49:51;;;;;;;;;;;20.70;29.40;;;;;;8366034;28;19913;-43
2023/02/11 15:53:55;;;;;;;;;;;20.70;29.40;;;;;;8365986;28;20397;-42
2023/02/11 15:57:57;;;;;;;;;;;20.70;29.40;;;;;;8365311;28;20023;-42
2023/02/11 16:02:04;;;;;;;;;;;20.60;29.40;;;;;;8364837;28;19924;-42
2023/02/11 16:06:15;;;;;;;;;;;20.60;29.40;;;;;;8365350;28;20262;-41
2023/02/11 16:10:26;;;;;;;;;;;20.60;29.40;;;;;;8365592;28;19917;-42
2023/02/11 16:14:30;;;;;;;;;;;20.60;29.50;;;;;;8365597;28;19963;-42
2023/02/11 16:18:30;;;;;;;;;;;20.50;29.40;;;;;;8365141;28;19948;-42
2023/02/11 16:22:36;;;;;;;;;;;20.50;29.40;;;;;;8364902;28;19924;-42
2023/02/11 16:26:39;;;;;;;;;;;20.50;29.50;;;;;;8365309;28;19917;-41
2023/02/11 16:30:42;;;;;;;;;;;20.50;29.60;;;;;;8364334;28;19917;-42
2023/02/11 16:34:42;;;;;;;;;;;20.50;29.70;;;;;;8364908;28;19927;-41
2023/02/11 16:38:42;;;;;;;;;;;20.50;29.70;;;;;;8364750;28;20293;-41
2023/02/11 16:42:43;;;;;;;;;;;20.50;29.60;;;;;;8364023;28;20389;-42
2023/02/11 16:46:43;;;;;;;;;;;20.60;29.70;;;;;;8364405;28;19917;-42
2023/02/11 16:50:45;;;;;;;;;;;20.60;29.60;;;;;;8364218;28;19959;-42
2023/02/11 16:54:46;;;;;;;;;;;20.60;29.60;;;;;;8363627;28;19921;-42
2023/02/11 16:58:46;;;;;;;;;;;20.70;29.60;;;;;;8364109;28;19943;-42
2023/02/11 17:02:47;;;;;;;;;;;20.70;29.60;;;;;;8363835;28;19955;-42
2023/02/11 17:06:47;;;;;;;;;;;20.70;29.60;;;;;;8363296;28;19924;-42
2023/02/11 17:10:48;;;;;;;;;;;20.70;29.50;;;;;;8346310;28;19924;-42
2023/02/11 17:14:48;;;;;;;;;;;20.70;29.50;;;;;;8363521;28;20350;-42
2023/02/11 17:18:49;;;;;;;;;;;20.70;29.50;;;;;;8363180;28;19917;-42
2023/02/11 17:22:49;;;;;;;;;;;20.70;29.50;;;;;;8363496;28;20314;-42
2023/02/11 17:26:50;;;;;;;;;;;20.70;29.50;;;;;;8363278;28;19916;-42
2023/02/11 17:30:50;;;;;;;;;;;20.60;29.50;;;;;;8362672;28;19917;-42
2023/02/11 17:34:51;;;;;;;;;;;20.60;29.50;;;;;;8363065;28;20019;-42
2023/02/11 17:38:53;;;;;;;;;;;20.50;29.40;;;;;;8363350;28;20003;-42
2023/02/11 17:42:53;;;;;;;;;;;20.50;29.40;;;;;;8362537;28;19925;-41
2023/02/11 17:46:54;;;;;;;;;;;20.50;29.40;;;;;;8363029;28;20293;-42
2023/02/11 17:50:54;;;;;;;;;;;20.50;29.50;;;;;;8362860;28;19916;-42
2023/02/11 17:54:55;;;;;;;;;;;20.50;29.60;;;;;;8362409;28;19921;-42
2023/02/11 17:58:55;;;;;;;;;;;20.40;29.60;;;;;;8362991;28;19921;-41
2023/02/11 18:02:56;;;;;;;;;;;20.40;29.70;;;;;;8362648;28;19951;-42
2023/02/11 18:06:57;;;;;;;;;;;20.50;29.60;;;;;;8362200;28;19916;-42
2023/02/11 18:10:57;;;;;;;;;;;20.50;29.60;;;;;;8362946;28;19955;-42
2023/02/11 18:14:58;;;;;;;;;;;20.50;29.60;;;;;;8362527;28;20006;-41
2023/02/11 18:18:58;;;;;;;;;;;20.50;29.60;;;;;;8362265;28;19948;-42
2023/02/11 18:22:59;;;;;;;;;;;20.60;29.60;;;;;;8363296;28;20301;-41
2023/02/11 18:26:59;;;;;;;;;;;20.60;29.60;;;;;;8368498;28;20450;-41
2023/02/11 18:31:00;;;;;;;;;;;20.70;29.50;;;;;;8368160;28;20336;-42
2023/02/11 18:35:00;;;;;;;;;;;20.70;29.50;;;;;;8368259;28;19917;-41
2023/02/11 18:39:01;;;;;;;;;;;20.70;29.50;;;;;;8368390;28;19924;-41
2023/02/11 18:43:02;;;;;;;;;;;20.70;29.50;;;;;;8368106;28;20116;-43
2023/02/11 18:47:02;;;;;;;;;;;20.70;29.50;;;;;;8367979;28;19920;-41
2023/02/11 18:51:07;;;;;;;;;;;20.60;29.40;;;;;;8367673;28;20290;-40
2023/02/11 18:55:08;;;;;;;;;;;20.60;29.50;;;;;;8368116;28;19912;-40
2023/02/11 18:59:08;;;;;;;;;;;20.50;29.40;;;;;;8368071;28;19921;-41
2023/02/11 19:03:08;;;;;;;;;;;20.50;29.40;;;;;;8367244;28;19924;-41
2023/02/11 19:07:09;;;;;;;;;;;20.50;29.40;;;;;;8367807;28;20373;-41
2023/02/11 19:11:10;;;;;;;;;;;20.50;29.40;;;;;;8367684;28;20242;-41
2023/02/11 19:15:10;;;;;;;;;;;20.40;29.50;;;;;;8366677;28;19956;-41
2023/02/11 19:19:11;;;;;;;;;;;20.40;29.60;;;;;;8367354;28;19944;-42
2023/02/11 19:23:11;;;;;;;;;;;20.40;29.60;;;;;;8366890;28;19925;-41
2023/02/11 19:27:12;;;;;;;;;;;20.50;29.60;;;;;;8366275;28;19940;-40
2023/02/11 19:31:12;;;;;;;;;;;20.50;29.60;;;;;;8367063;28;19921;-41
2023/02/11 19:35:13;;;;;;;;;;;20.50;29.60;;;;;;8365415;28;19912;-40
2023/02/11 19:39:13;;;;;;;;;;;20.50;29.50;;;;;;8366268;28;19920;-41
2023/02/11 19:43:14;;;;;;;;;;;20.50;29.50;;;;;;8366482;28;19924;-41
2023/02/11 19:47:14;;;;;;;;;;;20.60;29.50;;;;;;8366206;28;20374;-41
2023/02/11 19:51:15;;;;;;;;;;;20.60;29.50;;;;;;8365763;28;19984;-41
2023/02/11 19:55:16;;;;;;;;;;;20.60;29.50;;;;;;8366188;28;19955;-41
2023/02/11 19:59:16;;;;;;;;;;;20.60;29.40;;;;;;8365870;28;19991;-41
2023/02/11 20:03:17;;;;;;;;;;;20.60;29.40;;;;;;8364152;28;20435;-41
2023/02/11 20:07:17;;;;;;;;;;;20.70;29.50;;;;;;8365488;28;19974;-41
2023/02/11 20:11:19;;;;;;;;;;;20.70;29.40;;;;;;8365749;28;19921;-41
2023/02/11 20:15:20;;;;;;;;;;;20.70;29.40;;;;;;8365184;28;19913;-41
2023/02/11 20:19:21;;;;;;;;;;;20.60;29.30;;;;;;8365046;28;19917;-41
2023/02/11 20:23:21;;;;;;;;;;;20.60;29.40;;;;;;8365069;28;20015;-41
2023/02/11 20:27:22;;;;;;;;;;;20.50;29.40;;;;;;8364556;28;20009;-40
2023/02/11 20:31:23;;;;;;;;;;;20.50;29.30;;;;;;8365122;28;19950;-41
2023/02/11 20:35:24;;;;;;;;;;;20.50;29.30;;;;;;8365164;28;19913;-41
2023/02/11 20:39:25;;;;;;;;;;;20.50;29.40;;;;;;8364237;28;19927;-42
2023/02/11 20:43:26;;;;;;;;;;;20.40;29.40;;;;;;8364741;28;19924;-41
2023/02/11 20:47:26;;;;;;;;;;;20.40;29.50;;;;;;8364031;28;19923;-42
2023/02/11 20:51:28;;;;;;;;;;;20.40;29.50;;;;;;8363947;28;19917;-41
2023/02/11 20:55:29;;;;;;;;;;;20.40;29.50;;;;;;8364637;28;19913;-42
2023/02/11 20:59:29;;;;;;;;;;;20.40;29.50;;;;;;8363831;28;19970;-41
2023/02/11 21:03:29;;;;;;;;;;;20.40;29.50;;;;;;8363242;28;19924;-40
2023/02/11 21:07:30;;;;;;;;;;;20.50;29.50;;;;;;8363737;28;19917;-42
2023/02/11 21:11:31;;;;;;;;;;;20.50;29.40;;;;;;8363718;28;19940;-41
2023/02/11 21:15:31;;;;;;;;;;;20.50;29.40;;;;;;8363307;28;19913;-42
2023/02/11 21:19:31;;;;;;;;;;;20.50;29.40;;;;;;8363316;28;19917;-41
2023/02/11 21:23:32;;;;;;;;;;;20.50;29.40;;;;;;8363434;28;19928;-42
2023/02/11 21:27:33;;;;;;;;;;;20.50;29.30;;;;;;8363350;28;19940;-42
2023/02/11 21:31:34;;;;;;;;;;;20.40;29.30;;;;;;8363522;28;19978;-43
2023/02/11 21:35:35;;;;;;;;;;;20.40;29.30;;;;;;8363481;28;20300;-41
2023/02/11 21:39:35;;;;;;;;;;;20.40;29.30;;;;;;8362609;28;19917;-41
2023/02/11 21:43:36;;;;;;;;;;;20.30;29.40;;;;;;8362876;28;20027;-41
2023/02/11 21:47:36;;;;;;;;;;;20.30;29.40;;;;;;8363142;28;19917;-41
2023/02/11 21:51:37;;;;;;;;;;;20.20;29.50;;;;;;8362541;28;19924;-41
2023/02/11 21:55:38;;;;;;;;;;;20.10;29.60;;;;;;8363029;28;19919;-41
2023/02/11 21:59:39;;;;;;;;;;;20.10;29.60;;;;;;8366304;28;19921;-41
2023/02/11 22:03:39;;;;;;;;;;;20.00;29.60;;;;;;8368979;28;20051;-41
2023/02/11 22:07:40;;;;;;;;;;;20.00;29.70;;;;;;8369278;28;19917;-41
2023/02/11 22:11:40;;;;;;;;;;;19.90;29.80;;;;;;8369178;28;19923;-41
2023/02/11 22:15:41;;;;;;;;;;;19.90;29.80;;;;;;8368817;28;20374;-42
2023/02/11 22:19:41;;;;;;;;;;;19.80;29.80;;;;;;8369084;28;19924;-41
2023/02/11 22:23:42;;;;;;;;;;;19.80;29.90;;;;;;8368791;28;20382;-41
2023/02/11 22:27:42;;;;;;;;;;;19.70;29.90;;;;;;8368186;28;19921;-41
2023/02/11 22:31:43;;;;;;;;;;;19.70;29.90;;;;;;8368511;28;19920;-41
2023/02/11 22:35:43;;;;;;;;;;;19.70;29.90;;;;;;8368733;28;20359;-41
2023/02/11 22:39:44;;;;;;;;;;;19.60;30.00;;;;;;8367923;28;19917;-40
2023/02/11 22:43:44;;;;;;;;;;;19.60;30.00;;;;;;8368331;28;19967;-41
2023/02/11 22:47:44;;;;;;;;;;;19.60;30.00;;;;;;8368146;28;19925;-42
2023/02/11 22:51:45;;;;;;;;;;;19.50;29.90;;;;;;8367608;28;19921;-43
2023/02/11 22:55:45;;;;;;;;;;;19.50;30.00;;;;;;8368484;28;20381;-42
2023/02/11 22:59:47;;;;;;;;;;;19.50;30.00;;;;;;8367855;28;20098;-42
2023/02/11 23:03:47;;;;;;;;;;;19.40;30.00;;;;;;8366202;28;20007;-42
2023/02/11 23:07:48;;;;;;;;;;;19.40;30.00;;;;;;8360396;28;20289;-42
2023/02/11 23:11:53;;;;;;;;;;;19.40;30.00;;;;;;8367186;28;19992;-42
2023/02/11 23:15:53;;;;;;;;;;;19.30;30.00;;;;;;8366948;28;19924;-41
2023/02/11 23:19:53;;;;;;;;;;;19.30;30.00;;;;;;8349201;28;19987;-41
2023/02/11 23:23:55;;;;;;;;;;;19.30;30.10;;;;;;8367015;28;19924;-41
2023/02/11 23:27:56;;;;;;;;;;;19.20;30.20;;;;;;8366420;28;20000;-42
2023/02/11 23:31:56;;;;;;;;;;;19.20;30.00;;;;;;8367175;28;20388;-41
2023/02/11 23:35:59;;;;;;;;;;;19.20;30.00;;;;;;8367127;28;20076;-42
2023/02/11 23:39:59;;;;;;;;;;;19.20;30.00;;;;;;8366085;28;20013;-42
2023/02/11 23:44:00;;;;;;;;;;;19.10;30.00;;;;;;8366487;28;19928;-41